sensor_id;sensor_type;location;lat;lon;timestamp;pressure;altitude;pressure_sealevel;temperature;humidity
40285;BME280;25997;50.214;19.354;2022-12-24T00:02:50;96751.56;;;6.09;58.56
40285;BME280;25997;50.214;19.354;2022-12-24T00:05:52;96748.94;;;6.09;58.62
40285;BME280;25997;50.214;19.354;2022-12-24T00:08:55;96754.13;;;6.07;58.74
40285;BME280;25997;50.214;19.354;2022-12-24T00:11:59;96755.03;;;6.08;58.57
40285;BME280;25997;50.214;19.354;2022-12-24T00:15:02;96754.22;;;6.10;58.68
40285;BME280;25997;50.214;19.354;2022-12-24T00:18:04;96755.09;;;6.11;58.67
40285;BME280;25997;50.214;19.354;2022-12-24T00:21:07;96745.63;;;6.14;58.76
40285;BME280;25997;50.214;19.354;2022-12-24T00:24:09;96755.31;;;6.20;58.60
40285;BME280;25997;50.214;19.354;2022-12-24T00:27:13;96743.19;;;6.22;58.72
40285;BME280;25997;50.214;19.354;2022-12-24T00:30:16;96736.31;;;6.25;58.56
40285;BME280;25997;50.214;19.354;2022-12-24T00:33:18;96733.03;;;6.32;58.59
40285;BME280;25997;50.214;19.354;2022-12-24T00:36:21;96727.94;;;6.40;58.40
40285;BME280;25997;50.214;19.354;2022-12-24T00:39:24;96726.31;;;6.45;58.35
40285;BME280;25997;50.214;19.354;2022-12-24T00:42:28;96714.19;;;6.46;58.56
40285;BME280;25997;50.214;19.354;2022-12-24T00:45:30;96705.44;;;6.44;58.46
40285;BME280;25997;50.214;19.354;2022-12-24T00:48:33;96704.50;;;6.40;58.54
40285;BME280;25997;50.214;19.354;2022-12-24T00:51:35;96694.13;;;6.42;58.61
40285;BME280;25997;50.214;19.354;2022-12-24T00:54:38;96699.28;;;6.40;58.68
40285;BME280;25997;50.214;19.354;2022-12-24T00:57:42;96692.34;;;6.41;58.79
40285;BME280;25997;50.214;19.354;2022-12-24T01:00:44;96686.31;;;6.43;58.69
40285;BME280;25997;50.214;19.354;2022-12-24T01:03:47;96682.91;;;6.46;58.73
40285;BME280;25997;50.214;19.354;2022-12-24T01:06:51;96672.53;;;6.49;58.84
40285;BME280;25997;50.214;19.354;2022-12-24T01:09:52;96672.59;;;6.52;58.99
40285;BME280;25997;50.214;19.354;2022-12-24T01:12:56;96674.47;;;6.59;58.98
40285;BME280;25997;50.214;19.354;2022-12-24T01:15:58;96678.84;;;6.60;59.09
40285;BME280;25997;50.214;19.354;2022-12-24T01:19:01;96682.38;;;6.65;59.08
40285;BME280;25997;50.214;19.354;2022-12-24T01:22:03;96688.50;;;6.67;59.16
40285;BME280;25997;50.214;19.354;2022-12-24T01:25:07;96686.84;;;6.69;59.20
40285;BME280;25997;50.214;19.354;2022-12-24T01:28:11;96690.38;;;6.72;59.36
40285;BME280;25997;50.214;19.354;2022-12-24T01:31:15;96692.09;;;6.72;59.12
40285;BME280;25997;50.214;19.354;2022-12-24T01:34:17;96690.31;;;6.69;59.24
40285;BME280;25997;50.214;19.354;2022-12-24T01:37:20;96679.75;;;6.62;59.11
40285;BME280;25997;50.214;19.354;2022-12-24T01:40:25;96691.81;;;6.57;59.07
40285;BME280;25997;50.214;19.354;2022-12-24T01:43:47;96692.53;;;6.50;59.12
40285;BME280;25997;50.214;19.354;2022-12-24T01:46:51;96709.72;;;6.40;59.44
40285;BME280;25997;50.214;19.354;2022-12-24T01:49:57;96701.84;;;6.37;59.37
40285;BME280;25997;50.214;19.354;2022-12-24T01:53:01;96706.09;;;6.33;59.33
40285;BME280;25997;50.214;19.354;2022-12-24T01:56:06;96696.53;;;6.32;59.28
40285;BME280;25997;50.214;19.354;2022-12-24T01:59:14;96694.94;;;6.41;59.52
40285;BME280;25997;50.214;19.354;2022-12-24T02:02:18;96687.22;;;6.45;59.46
40285;BME280;25997;50.214;19.354;2022-12-24T02:05:25;96676.06;;;6.52;59.22
40285;BME280;25997;50.214;19.354;2022-12-24T02:08:29;96682.22;;;6.56;59.27
40285;BME280;25997;50.214;19.354;2022-12-24T02:11:41;96678.88;;;6.61;59.26
40285;BME280;25997;50.214;19.354;2022-12-24T02:14:46;96667.63;;;6.64;59.19
40285;BME280;25997;50.214;19.354;2022-12-24T02:17:55;96673.81;;;6.69;59.28
40285;BME280;25997;50.214;19.354;2022-12-24T02:21:29;96672.13;;;6.74;59.08
40285;BME280;25997;50.214;19.354;2022-12-24T02:24:52;96673.84;;;6.72;58.79
40285;BME280;25997;50.214;19.354;2022-12-24T02:28:05;96669.44;;;6.69;59.29
40285;BME280;25997;50.214;19.354;2022-12-24T02:31:17;96674.63;;;6.68;59.54
40285;BME280;25997;50.214;19.354;2022-12-24T02:34:27;96674.56;;;6.65;59.45
40285;BME280;25997;50.214;19.354;2022-12-24T02:37:34;96673.63;;;6.60;59.63
40285;BME280;25997;50.214;19.354;2022-12-24T02:40:42;96674.41;;;6.56;59.56
40285;BME280;25997;50.214;19.354;2022-12-24T02:43:47;96670.88;;;6.54;59.80
40285;BME280;25997;50.214;19.354;2022-12-24T02:46:54;96672.72;;;6.58;59.79
40285;BME280;25997;50.214;19.354;2022-12-24T02:49:59;96668.41;;;6.60;59.88
40285;BME280;25997;50.214;19.354;2022-12-24T02:53:02;96658.91;;;6.63;59.84
40285;BME280;25997;50.214;19.354;2022-12-24T02:56:12;96661.59;;;6.68;60.03
40285;BME280;25997;50.214;19.354;2022-12-24T02:59:35;96660.53;;;6.57;59.97
40285;BME280;25997;50.214;19.354;2022-12-24T03:03:00;96663.94;;;6.53;59.91
40285;BME280;25997;50.214;19.354;2022-12-24T03:06:11;96667.34;;;6.50;60.20
40285;BME280;25997;50.214;19.354;2022-12-24T03:09:24;96678.59;;;6.48;60.40
40285;BME280;25997;50.214;19.354;2022-12-24T03:12:31;96680.47;;;6.55;60.58
40285;BME280;25997;50.214;19.354;2022-12-24T03:15:36;96684.06;;;6.61;60.21
40285;BME280;25997;50.214;19.354;2022-12-24T03:18:43;96694.41;;;6.55;60.22
40285;BME280;25997;50.214;19.354;2022-12-24T03:21:47;96704.84;;;6.57;61.10
40285;BME280;25997;50.214;19.354;2022-12-24T03:24:51;96718.69;;;6.53;61.84
40285;BME280;25997;50.214;19.354;2022-12-24T03:27:55;96717.19;;;6.65;61.50
40285;BME280;25997;50.214;19.354;2022-12-24T03:31:00;96729.19;;;6.57;62.33
40285;BME280;25997;50.214;19.354;2022-12-24T03:34:04;96729.22;;;6.59;62.89
40285;BME280;25997;50.214;19.354;2022-12-24T03:37:06;96731.09;;;6.66;62.60
40285;BME280;25997;50.214;19.354;2022-12-24T03:40:10;96727.81;;;6.76;62.33
40285;BME280;25997;50.214;19.354;2022-12-24T03:43:12;96730.41;;;6.76;62.53
40285;BME280;25997;50.214;19.354;2022-12-24T03:46:15;96725.28;;;6.79;62.48
40285;BME280;25997;50.214;19.354;2022-12-24T03:49:19;96725.13;;;6.71;62.51
40285;BME280;25997;50.214;19.354;2022-12-24T03:52:21;96726.25;;;6.84;62.39
40285;BME280;25997;50.214;19.354;2022-12-24T03:55:24;96720.13;;;6.82;62.18
40285;BME280;25997;50.214;19.354;2022-12-24T03:58:27;96726.19;;;6.82;62.03
40285;BME280;25997;50.214;19.354;2022-12-24T04:01:29;96720.38;;;6.51;63.04
40285;BME280;25997;50.214;19.354;2022-12-24T04:04:33;96737.72;;;6.49;62.88
40285;BME280;25997;50.214;19.354;2022-12-24T04:07:37;96733.56;;;6.58;62.51
40285;BME280;25997;50.214;19.354;2022-12-24T04:10:40;96731.00;;;6.61;62.08
40285;BME280;25997;50.214;19.354;2022-12-24T04:13:42;96733.34;;;6.48;62.62
40285;BME280;25997;50.214;19.354;2022-12-24T04:16:45;96734.03;;;6.39;62.79
40285;BME280;25997;50.214;19.354;2022-12-24T04:19:49;96722.81;;;6.43;62.45
40285;BME280;25997;50.214;19.354;2022-12-24T04:22:52;96729.81;;;6.46;62.29
40285;BME280;25997;50.214;19.354;2022-12-24T04:25:55;96723.75;;;6.47;62.11
40285;BME280;25997;50.214;19.354;2022-12-24T04:28:57;96733.16;;;6.38;62.32
40285;BME280;25997;50.214;19.354;2022-12-24T04:32:00;96736.22;;;6.22;63.04
40285;BME280;25997;50.214;19.354;2022-12-24T04:35:04;96728.53;;;6.27;62.78
40285;BME280;25997;50.214;19.354;2022-12-24T04:38:07;96725.22;;;6.34;62.71
40285;BME280;25997;50.214;19.354;2022-12-24T04:41:12;96731.53;;;6.44;62.43
40285;BME280;25997;50.214;19.354;2022-12-24T04:44:15;96724.59;;;6.44;62.18
40285;BME280;25997;50.214;19.354;2022-12-24T04:47:17;96732.41;;;6.44;62.21
40285;BME280;25997;50.214;19.354;2022-12-24T04:50:21;96722.78;;;6.42;62.49
40285;BME280;25997;50.214;19.354;2022-12-24T04:53:23;96735.88;;;6.45;62.33
40285;BME280;25997;50.214;19.354;2022-12-24T04:56:28;96748.69;;;6.34;62.84
40285;BME280;25997;50.214;19.354;2022-12-24T04:59:31;96745.84;;;6.25;63.21
40285;BME280;25997;50.214;19.354;2022-12-24T05:02:34;96745.25;;;6.35;63.04
40285;BME280;25997;50.214;19.354;2022-12-24T05:05:38;96742.50;;;6.29;63.15
40285;BME280;25997;50.214;19.354;2022-12-24T05:08:40;96729.31;;;6.24;63.49
40285;BME280;25997;50.214;19.354;2022-12-24T05:11:43;96734.00;;;6.37;62.85
40285;BME280;25997;50.214;19.354;2022-12-24T05:14:46;96738.25;;;6.32;63.24
40285;BME280;25997;50.214;19.354;2022-12-24T05:17:48;96738.13;;;6.28;63.44
40285;BME280;25997;50.214;19.354;2022-12-24T05:20:52;96733.38;;;6.10;63.96
40285;BME280;25997;50.214;19.354;2022-12-24T05:23:55;96745.19;;;6.33;63.18
40285;BME280;25997;50.214;19.354;2022-12-24T05:27:15;96739.03;;;6.28;63.27
40285;BME280;25997;50.214;19.354;2022-12-24T05:30:18;96745.16;;;6.30;63.09
40285;BME280;25997;50.214;19.354;2022-12-24T05:33:20;96740.75;;;6.29;63.25
40285;BME280;25997;50.214;19.354;2022-12-24T05:36:25;96746.44;;;6.13;64.06
40285;BME280;25997;50.214;19.354;2022-12-24T05:39:27;96749.13;;;6.16;64.15
40285;BME280;25997;50.214;19.354;2022-12-24T05:42:30;96753.66;;;6.25;63.79
40285;BME280;25997;50.214;19.354;2022-12-24T05:45:32;96752.09;;;6.31;63.50
40285;BME280;25997;50.214;19.354;2022-12-24T05:48:35;96759.00;;;6.29;63.74
40285;BME280;25997;50.214;19.354;2022-12-24T05:51:39;96770.09;;;6.21;63.91
40285;BME280;25997;50.214;19.354;2022-12-24T05:54:42;96767.81;;;6.34;63.57
40285;BME280;25997;50.214;19.354;2022-12-24T05:57:44;96768.53;;;6.29;63.59
40285;BME280;25997;50.214;19.354;2022-12-24T06:00:47;96766.03;;;6.32;63.71
40285;BME280;25997;50.214;19.354;2022-12-24T06:03:50;96770.66;;;6.47;63.12
40285;BME280;25997;50.214;19.354;2022-12-24T06:06:54;96756.69;;;6.43;62.85
40285;BME280;25997;50.214;19.354;2022-12-24T06:09:57;96762.59;;;6.34;63.38
40285;BME280;25997;50.214;19.354;2022-12-24T06:12:59;96772.31;;;6.42;63.23
40285;BME280;25997;50.214;19.354;2022-12-24T06:16:03;96777.44;;;6.37;63.12
40285;BME280;25997;50.214;19.354;2022-12-24T06:19:06;96778.47;;;6.45;63.09
40285;BME280;25997;50.214;19.354;2022-12-24T06:22:11;96782.78;;;6.45;62.95
40285;BME280;25997;50.214;19.354;2022-12-24T06:25:13;96789.00;;;6.51;62.91
40285;BME280;25997;50.214;19.354;2022-12-24T06:28:16;96803.63;;;6.43;63.08
40285;BME280;25997;50.214;19.354;2022-12-24T06:31:21;96808.22;;;6.55;62.67
40285;BME280;25997;50.214;19.354;2022-12-24T06:34:24;96813.44;;;6.55;62.68
40285;BME280;25997;50.214;19.354;2022-12-24T06:37:28;96820.41;;;6.56;62.65
40285;BME280;25997;50.214;19.354;2022-12-24T06:40:31;96819.75;;;6.64;62.41
40285;BME280;25997;50.214;19.354;2022-12-24T06:43:34;96820.00;;;6.78;61.97
40285;BME280;25997;50.214;19.354;2022-12-24T06:46:37;96814.66;;;6.70;62.14
40285;BME280;25997;50.214;19.354;2022-12-24T06:49:39;96816.97;;;6.57;62.68
40285;BME280;25997;50.214;19.354;2022-12-24T06:52:43;96823.78;;;6.52;62.82
40285;BME280;25997;50.214;19.354;2022-12-24T06:55:46;96820.50;;;6.60;62.42
40285;BME280;25997;50.214;19.354;2022-12-24T06:58:48;96822.06;;;6.51;62.78
40285;BME280;25997;50.214;19.354;2022-12-24T07:01:51;96829.00;;;6.50;62.71
40285;BME280;25997;50.214;19.354;2022-12-24T07:04:54;96824.50;;;6.45;62.74
40285;BME280;25997;50.214;19.354;2022-12-24T07:07:58;96829.66;;;6.42;63.04
40285;BME280;25997;50.214;19.354;2022-12-24T07:11:00;96835.50;;;6.31;63.58
40285;BME280;25997;50.214;19.354;2022-12-24T07:14:03;96829.72;;;6.45;63.09
40285;BME280;25997;50.214;19.354;2022-12-24T07:17:05;96838.16;;;6.33;63.54
40285;BME280;25997;50.214;19.354;2022-12-24T07:20:11;96841.59;;;6.32;63.53
40285;BME280;25997;50.214;19.354;2022-12-24T07:23:16;96840.81;;;6.36;63.63
40285;BME280;25997;50.214;19.354;2022-12-24T07:26:18;96851.31;;;6.37;63.48
40285;BME280;25997;50.214;19.354;2022-12-24T07:29:21;96853.03;;;6.37;63.68
40285;BME280;25997;50.214;19.354;2022-12-24T07:32:23;96854.66;;;6.33;64.06
40285;BME280;25997;50.214;19.354;2022-12-24T07:35:26;96857.56;;;6.46;63.61
40285;BME280;25997;50.214;19.354;2022-12-24T07:38:30;96850.75;;;6.52;63.61
40285;BME280;25997;50.214;19.354;2022-12-24T07:41:33;96852.66;;;6.59;63.23
40285;BME280;25997;50.214;19.354;2022-12-24T07:44:35;96864.94;;;6.65;63.36
40285;BME280;25997;50.214;19.354;2022-12-24T07:47:38;96879.00;;;6.34;64.23
40285;BME280;25997;50.214;19.354;2022-12-24T07:50:40;96879.63;;;6.60;63.69
40285;BME280;25997;50.214;19.354;2022-12-24T07:53:44;96877.97;;;6.65;63.53
40285;BME280;25997;50.214;19.354;2022-12-24T07:56:48;96898.78;;;6.62;63.73
40285;BME280;25997;50.214;19.354;2022-12-24T07:59:50;96899.72;;;6.65;63.78
40285;BME280;25997;50.214;19.354;2022-12-24T08:02:53;96887.59;;;6.67;63.83
40285;BME280;25997;50.214;19.354;2022-12-24T08:05:55;96900.06;;;6.80;63.59
40285;BME280;25997;50.214;19.354;2022-12-24T08:08:59;96904.13;;;6.66;63.84
40285;BME280;25997;50.214;19.354;2022-12-24T08:12:02;96902.78;;;6.85;63.25
40285;BME280;25997;50.214;19.354;2022-12-24T08:15:06;96899.47;;;6.93;63.20
40285;BME280;25997;50.214;19.354;2022-12-24T08:18:09;96907.28;;;6.92;63.22
40285;BME280;25997;50.214;19.354;2022-12-24T08:21:11;96906.25;;;6.84;63.32
40285;BME280;25997;50.214;19.354;2022-12-24T08:24:15;96900.41;;;6.95;63.08
40285;BME280;25997;50.214;19.354;2022-12-24T08:27:18;96907.47;;;7.01;62.78
40285;BME280;25997;50.214;19.354;2022-12-24T08:30:20;96912.78;;;7.04;62.73
40285;BME280;25997;50.214;19.354;2022-12-24T08:33:23;96911.97;;;7.06;63.03
40285;BME280;25997;50.214;19.354;2022-12-24T08:36:25;96916.25;;;7.04;62.90
40285;BME280;25997;50.214;19.354;2022-12-24T08:39:30;96924.72;;;6.94;63.19
40285;BME280;25997;50.214;19.354;2022-12-24T08:42:32;96942.53;;;7.13;62.83
40285;BME280;25997;50.214;19.354;2022-12-24T08:45:37;96936.97;;;6.97;63.15
40285;BME280;25997;50.214;19.354;2022-12-24T08:48:39;96939.69;;;7.01;63.00
40285;BME280;25997;50.214;19.354;2022-12-24T08:51:42;96944.94;;;7.03;63.16
40285;BME280;25997;50.214;19.354;2022-12-24T08:54:46;96940.94;;;7.20;62.69
40285;BME280;25997;50.214;19.354;2022-12-24T08:57:49;96951.66;;;7.34;61.99
40285;BME280;25997;50.214;19.354;2022-12-24T09:00:51;96953.47;;;7.36;62.13
40285;BME280;25997;50.214;19.354;2022-12-24T09:03:54;96954.47;;;7.43;61.94
40285;BME280;25997;50.214;19.354;2022-12-24T09:06:56;96943.84;;;7.34;62.37
40285;BME280;25997;50.214;19.354;2022-12-24T09:10:00;96946.81;;;7.10;62.94
40285;BME280;25997;50.214;19.354;2022-12-24T09:13:03;96953.22;;;7.24;62.63
40285;BME280;25997;50.214;19.354;2022-12-24T09:16:07;96964.78;;;7.35;62.52
40285;BME280;25997;50.214;19.354;2022-12-24T09:19:09;96966.53;;;7.38;62.36
40285;BME280;25997;50.214;19.354;2022-12-24T09:22:12;96968.19;;;7.33;62.33
40285;BME280;25997;50.214;19.354;2022-12-24T09:25:17;96975.97;;;7.30;62.33
40285;BME280;25997;50.214;19.354;2022-12-24T09:28:19;96965.78;;;7.42;62.17
40285;BME280;25997;50.214;19.354;2022-12-24T09:31:22;96970.94;;;7.39;62.36
40285;BME280;25997;50.214;19.354;2022-12-24T09:34:25;96964.97;;;7.44;62.19
40285;BME280;25997;50.214;19.354;2022-12-24T09:37:28;96962.56;;;7.55;61.77
40285;BME280;25997;50.214;19.354;2022-12-24T09:40:36;96969.50;;;7.53;61.70
40285;BME280;25997;50.214;19.354;2022-12-24T09:43:44;96979.97;;;7.54;61.68
40285;BME280;25997;50.214;19.354;2022-12-24T09:46:48;96975.91;;;7.67;61.84
40285;BME280;25997;50.214;19.354;2022-12-24T09:49:54;96984.97;;;7.84;60.94
40285;BME280;25997;50.214;19.354;2022-12-24T09:52:59;96993.63;;;7.83;61.15
40285;BME280;25997;50.214;19.354;2022-12-24T09:56:08;97004.34;;;7.95;60.98
40285;BME280;25997;50.214;19.354;2022-12-24T09:59:15;96998.16;;;7.92;61.02
40285;BME280;25997;50.214;19.354;2022-12-24T10:02:18;97002.63;;;7.97;60.66
40285;BME280;25997;50.214;19.354;2022-12-24T10:05:28;97011.41;;;8.01;60.29
40285;BME280;25997;50.214;19.354;2022-12-24T10:08:44;97019.25;;;8.02;60.12
40285;BME280;25997;50.214;19.354;2022-12-24T10:12:02;97013.28;;;8.06;60.04
40285;BME280;25997;50.214;19.354;2022-12-24T10:15:15;97018.22;;;7.93;60.23
40285;BME280;25997;50.214;19.354;2022-12-24T10:18:26;97034.66;;;7.87;60.10
40285;BME280;25997;50.214;19.354;2022-12-24T10:21:42;97036.81;;;8.08;59.71
40285;BME280;25997;50.214;19.354;2022-12-24T10:24:55;97034.94;;;8.01;59.99
40285;BME280;25997;50.214;19.354;2022-12-24T10:28:07;97040.88;;;7.94;60.02
40285;BME280;25997;50.214;19.354;2022-12-24T10:31:19;97046.09;;;7.94;60.22
40285;BME280;25997;50.214;19.354;2022-12-24T10:34:31;97054.13;;;8.03;59.79
40285;BME280;25997;50.214;19.354;2022-12-24T10:37:35;97058.66;;;8.11;59.78
40285;BME280;25997;50.214;19.354;2022-12-24T10:40:41;97056.94;;;8.12;59.54
40285;BME280;25997;50.214;19.354;2022-12-24T10:43:46;97061.53;;;8.25;59.53
40285;BME280;25997;50.214;19.354;2022-12-24T10:46:49;97054.31;;;8.12;59.36
40285;BME280;25997;50.214;19.354;2022-12-24T10:49:59;97048.25;;;8.13;59.13
40285;BME280;25997;50.214;19.354;2022-12-24T10:53:11;97062.66;;;7.93;59.80
40285;BME280;25997;50.214;19.354;2022-12-24T10:56:16;97068.72;;;7.92;60.16
40285;BME280;25997;50.214;19.354;2022-12-24T10:59:26;97064.03;;;7.75;60.81
40285;BME280;25997;50.214;19.354;2022-12-24T11:02:31;97071.91;;;7.77;60.97
40285;BME280;25997;50.214;19.354;2022-12-24T11:05:36;97079.66;;;7.72;61.44
40285;BME280;25997;50.214;19.354;2022-12-24T11:08:40;97091.00;;;7.73;61.42
40285;BME280;25997;50.214;19.354;2022-12-24T11:11:43;97096.94;;;7.67;61.74
40285;BME280;25997;50.214;19.354;2022-12-24T11:14:47;97078.31;;;7.52;62.21
40285;BME280;25997;50.214;19.354;2022-12-24T11:18:02;97103.56;;;7.53;62.28
40285;BME280;25997;50.214;19.354;2022-12-24T11:21:07;97093.09;;;7.53;62.36
40285;BME280;25997;50.214;19.354;2022-12-24T11:24:22;97104.00;;;7.71;61.80
40285;BME280;25997;50.214;19.354;2022-12-24T11:27:33;97095.16;;;7.65;62.05
40285;BME280;25997;50.214;19.354;2022-12-24T11:30:41;97106.66;;;7.73;61.87
40285;BME280;25997;50.214;19.354;2022-12-24T11:33:46;97108.03;;;7.57;63.08
40285;BME280;25997;50.214;19.354;2022-12-24T11:36:49;97106.59;;;7.70;62.78
40285;BME280;25997;50.214;19.354;2022-12-24T11:39:54;97117.13;;;7.73;62.82
40285;BME280;25997;50.214;19.354;2022-12-24T11:42:59;97118.13;;;7.79;62.77
40285;BME280;25997;50.214;19.354;2022-12-24T11:46:13;97128.81;;;7.92;62.45
40285;BME280;25997;50.214;19.354;2022-12-24T11:49:22;97129.75;;;7.94;62.70
40285;BME280;25997;50.214;19.354;2022-12-24T11:52:26;97141.94;;;7.93;62.79
40285;BME280;25997;50.214;19.354;2022-12-24T11:55:41;97143.47;;;7.83;63.00
40285;BME280;25997;50.214;19.354;2022-12-24T11:58:49;97156.75;;;7.94;62.71
40285;BME280;25997;50.214;19.354;2022-12-24T12:01:58;97163.09;;;8.05;62.49
40285;BME280;25997;50.214;19.354;2022-12-24T12:05:08;97170.22;;;8.12;62.85
40285;BME280;25997;50.214;19.354;2022-12-24T12:08:16;97159.69;;;8.09;63.23
40285;BME280;25997;50.214;19.354;2022-12-24T12:11:20;97175.00;;;8.31;62.60
40285;BME280;25997;50.214;19.354;2022-12-24T12:14:28;97187.13;;;8.28;62.61
40285;BME280;25997;50.214;19.354;2022-12-24T12:17:38;97180.28;;;8.34;62.52
40285;BME280;25997;50.214;19.354;2022-12-24T12:20:42;97190.94;;;8.43;62.21
40285;BME280;25997;50.214;19.354;2022-12-24T12:23:49;97184.84;;;8.44;62.23
40285;BME280;25997;50.214;19.354;2022-12-24T12:27:02;97203.63;;;8.25;62.78
40285;BME280;25997;50.214;19.354;2022-12-24T12:30:13;97201.47;;;8.46;62.30
40285;BME280;25997;50.214;19.354;2022-12-24T12:33:21;97219.00;;;8.50;61.94
40285;BME280;25997;50.214;19.354;2022-12-24T12:36:30;97220.66;;;8.47;62.08
40285;BME280;25997;50.214;19.354;2022-12-24T12:39:35;97230.09;;;8.39;62.60
40285;BME280;25997;50.214;19.354;2022-12-24T12:42:38;97232.19;;;8.56;61.97
40285;BME280;25997;50.214;19.354;2022-12-24T12:45:46;97244.97;;;8.41;62.63
40285;BME280;25997;50.214;19.354;2022-12-24T12:49:11;97239.13;;;8.53;62.06
40285;BME280;25997;50.214;19.354;2022-12-24T12:52:21;97255.81;;;8.60;61.80
40285;BME280;25997;50.214;19.354;2022-12-24T12:55:38;97259.28;;;8.58;61.90
40285;BME280;25997;50.214;19.354;2022-12-24T12:58:47;97266.31;;;8.63;61.74
40285;BME280;25997;50.214;19.354;2022-12-24T13:01:58;97257.56;;;8.61;61.85
40285;BME280;25997;50.214;19.354;2022-12-24T13:05:33;97266.31;;;8.63;61.83
40285;BME280;25997;50.214;19.354;2022-12-24T13:12:39;97276.69;;;8.58;61.86
40285;BME280;25997;50.214;19.354;2022-12-24T13:15:59;97277.19;;;8.40;62.37
40285;BME280;25997;50.214;19.354;2022-12-24T13:19:23;97301.72;;;8.45;62.28
40285;BME280;25997;50.214;19.354;2022-12-24T13:22:30;97300.16;;;8.53;61.95
40285;BME280;25997;50.214;19.354;2022-12-24T13:25:35;97304.41;;;8.48;62.34
40285;BME280;25997;50.214;19.354;2022-12-24T13:28:38;97303.44;;;8.45;62.35
40285;BME280;25997;50.214;19.354;2022-12-24T13:31:41;97308.44;;;8.34;62.65
40285;BME280;25997;50.214;19.354;2022-12-24T13:34:46;97319.91;;;8.39;62.65
40285;BME280;25997;50.214;19.354;2022-12-24T13:37:51;97333.03;;;8.42;62.51
40285;BME280;25997;50.214;19.354;2022-12-24T13:40:53;97326.84;;;8.37;62.79
40285;BME280;25997;50.214;19.354;2022-12-24T13:44:13;97344.31;;;8.40;62.50
40285;BME280;25997;50.214;19.354;2022-12-24T13:47:20;97350.63;;;8.49;62.37
40285;BME280;25997;50.214;19.354;2022-12-24T13:50:35;97347.47;;;8.27;62.83
40285;BME280;25997;50.214;19.354;2022-12-24T13:53:42;97362.72;;;8.44;62.59
40285;BME280;25997;50.214;19.354;2022-12-24T13:56:47;97361.88;;;8.45;62.33
40285;BME280;25997;50.214;19.354;2022-12-24T13:59:55;97369.66;;;8.42;62.56
40285;BME280;25997;50.214;19.354;2022-12-24T14:03:02;97384.72;;;8.51;62.23
40285;BME280;25997;50.214;19.354;2022-12-24T14:06:09;97382.09;;;8.51;62.20
40285;BME280;25997;50.214;19.354;2022-12-24T14:09:16;97389.09;;;8.53;62.13
40285;BME280;25997;50.214;19.354;2022-12-24T14:12:33;97385.75;;;8.59;62.00
40285;BME280;25997;50.214;19.354;2022-12-24T14:16:03;97384.94;;;8.62;61.89
40285;BME280;25997;50.214;19.354;2022-12-24T14:19:12;97397.06;;;8.58;61.97
40285;BME280;25997;50.214;19.354;2022-12-24T14:22:25;97390.88;;;8.54;62.25
40285;BME280;25997;50.214;19.354;2022-12-24T14:25:31;97404.97;;;8.61;61.98
40285;BME280;25997;50.214;19.354;2022-12-24T14:28:38;97412.66;;;8.53;62.42
40285;BME280;25997;50.214;19.354;2022-12-24T14:31:49;97411.91;;;8.58;61.92
40285;BME280;25997;50.214;19.354;2022-12-24T14:35:03;97436.81;;;8.42;62.19
40285;BME280;25997;50.214;19.354;2022-12-24T14:38:11;97437.72;;;8.44;62.56
40285;BME280;25997;50.214;19.354;2022-12-24T14:41:31;97447.03;;;8.33;62.65
40285;BME280;25997;50.214;19.354;2022-12-24T14:44:39;97453.09;;;8.32;62.69
40285;BME280;25997;50.214;19.354;2022-12-24T14:47:48;97444.53;;;8.37;62.39
40285;BME280;25997;50.214;19.354;2022-12-24T14:51:01;97453.63;;;8.19;62.64
